Terminal Aerodrome Forecast
Issued by NWS

Home | Current Version | Previous Version | Text Only | Print | Product List | Glossary On
Versions: 1 2 3 4 5 6 7 8 9 10 11 12 13 14 15 16 17 18
000
FTUS43 KAPX 251100 RRA
TAFPLN
TAF
KPLN 251151Z 2512/2612 27011G20KT P6SM BKN015
     FM251500 29013G24KT P6SM FEW040
     FM260000 30010G17KT P6SM FEW050
     FM260600 29008KT P6SM SCT060=

USA.gov is the U.S. government's official web portal to all federal, state and local government web resources and services.